Time;durP1;ratioP1;P1;durP2;ratioP2;P2;SDS_P1;SDS_P2;PMS_P1;PMS_P2;Temp;Humidity;BMP_temperature;BMP_pressure;BME280_temperature;BME280_humidity;BME280_pressure;Samples;Min_cycle;Max_cycle;Signal;HPM_P1;HPM_P2
2022/08/26 00:00:44;;;;;;;27.88;17.70;;;;;;;19.87;94.07;101351.84;5011838;28;20061;-65
2022/08/26 00:03:11;;;;;;;26.58;18.25;;;;;;;19.79;95.01;101351.63;4997979;28;20147;-65
2022/08/26 00:05:38;;;;;;;31.38;17.48;;;;;;;19.72;94.93;101345.81;4997670;28;20644;-65
2022/08/26 00:08:04;;;;;;;27.45;16.85;;;;;;;19.62;94.91;101344.31;4998121;28;20026;-65
2022/08/26 00:10:30;;;;;;;26.65;15.27;;;;;;;19.70;95.07;101359.38;5015496;28;20034;-66
2022/08/26 00:12:55;;;;;;;24.50;16.50;;;;;;;19.63;95.42;101359.97;4997342;28;20120;-66
2022/08/26 00:15:21;;;;;;;26.90;15.10;;;;;;;19.60;95.63;101355.06;4997333;28;20026;-65
2022/08/26 00:17:49;;;;;;;23.75;14.80;;;;;;;19.61;95.67;101373.53;5014994;28;20033;-64
2022/08/26 00:20:19;;;;;;;23.65;13.90;;;;;;;19.64;95.25;101372.03;4997572;28;20153;-64
2022/08/26 00:22:45;;;;;;;25.02;13.75;;;;;;;19.58;95.75;101356.59;4997216;28;20104;-63
2022/08/26 00:25:12;;;;;;;23.23;13.13;;;;;;;19.59;95.91;101358.22;4997689;28;20433;-63
2022/08/26 00:27:38;;;;;;;21.70;13.40;;;;;;;19.64;95.69;101367.22;4997579;28;20089;-64
2022/08/26 00:30:07;;;;;;;21.83;12.88;;;;;;;19.58;95.20;101348.19;5014479;28;20121;-64
2022/08/26 00:32:33;;;;;;;21.23;12.70;;;;;;;19.65;95.63;101370.84;4997022;28;20049;-63
2022/08/26 00:34:59;;;;;;;20.90;12.45;;;;;;;19.64;95.19;101381.25;4997567;28;20083;-62
2022/08/26 00:37:24;;;;;;;20.73;12.65;;;;;;;19.51;95.62;101359.19;4997272;28;20034;-63
2022/08/26 00:39:49;;;;;;;21.65;11.93;;;;;;;19.61;95.17;101370.72;4997041;28;20193;-63
2022/08/26 00:42:15;;;;;;;22.85;12.80;;;;;;;19.52;95.67;101364.44;5014918;28;20050;-64
2022/08/26 00:44:41;;;;;;;21.88;12.45;;;;;;;19.57;96.17;101371.78;5015009;28;20037;-65
2022/08/26 00:47:12;;;;;;;21.10;12.57;;;;;;;19.61;95.56;101378.34;5014611;28;20611;-64
2022/08/26 00:49:42;;;;;;;22.95;12.15;;;;;;;19.56;95.55;101372.97;5014811;28;20048;-64
2022/08/26 00:52:13;;;;;;;22.27;13.07;;;;;;;19.56;95.57;101382.22;5014866;28;20033;-64
2022/08/26 00:54:45;;;;;;;26.70;12.75;;;;;;;19.50;95.82;101358.41;4997004;28;20033;-64
2022/08/26 00:57:15;;;;;;;21.95;12.20;;;;;;;19.48;95.83;101357.94;4996723;28;20180;-64
2022/08/26 00:59:43;;;;;;;21.92;12.45;;;;;;;19.62;95.09;101377.19;5014889;28;20053;-64
2022/08/26 01:02:08;;;;;;;21.15;12.68;;;;;;;19.54;95.54;101378.13;5015012;28;20500;-64
2022/08/26 01:04:37;;;;;;;21.88;12.30;;;;;;;19.54;95.91;101386.56;5014928;28;20064;-64
2022/08/26 01:07:04;;;;;;;23.60;12.88;;;;;;;19.48;95.79;101380.38;5015121;28;20041;-66
2022/08/26 01:09:31;;;;;;;23.10;13.23;;;;;;;19.51;95.87;101388.06;5014535;28;20108;-66
2022/08/26 01:11:59;;;;;;;22.85;12.80;;;;;;;19.45;96.08;101376.28;4996044;28;20030;-64
2022/08/26 01:14:28;;;;;;;22.42;12.93;;;;;;;19.48;96.16;101383.97;4996211;28;20034;-63
2022/08/26 01:16:54;;;;;;;23.98;13.02;;;;;;;19.36;95.92;101358.78;4996254;28;20033;-64
2022/08/26 01:19:28;;;;;;;23.10;13.30;;;;;;;19.44;95.67;101369.03;4996517;28;20030;-64
2022/08/26 01:22:00;;;;;;;22.90;12.73;;;;;;;19.51;95.63;101378.84;4996535;28;20076;-64
2022/08/26 01:24:27;;;;;;;21.20;13.00;;;;;;;19.38;96.20;101378.06;4996144;28;20025;-64
2022/08/26 01:27:00;;;;;;;23.80;13.52;;;;;;;19.32;96.80;101383.88;4996685;28;20084;-64
2022/08/26 01:29:28;;;;;;;23.38;13.45;;;;;;;19.30;97.13;101385.41;4996799;28;20025;-64
2022/08/26 01:31:55;;;;;;;23.65;13.15;;;;;;;19.29;97.10;101376.19;4996606;28;20383;-64
2022/08/26 01:34:23;;;;;;;21.40;13.38;;;;;;;19.18;97.17;101361.81;4996552;28;20398;-64
2022/08/26 01:36:52;;;;;;;27.73;13.65;;;;;;;19.30;97.58;101377.84;4995941;28;20062;-65
2022/08/26 01:39:18;;;;;;;23.23;13.70;;;;;;;19.27;96.94;101369.31;4996167;28;20053;-64
2022/08/26 01:41:44;;;;;;;21.67;12.73;;;;;;;19.40;96.72;101375.72;4996063;28;20164;-64
2022/08/26 01:44:15;;;;;;;21.52;12.98;;;;;;;19.28;96.42;101354.94;4996300;28;20060;-64
2022/08/26 01:46:43;;;;;;;21.80;13.45;;;;;;;19.39;95.97;101368.47;4996571;28;20026;-64
2022/08/26 01:49:09;;;;;;;22.75;12.95;;;;;;;19.34;96.27;101369.53;4996029;28;20029;-64
2022/08/26 01:51:37;;;;;;;20.90;12.85;;;;;;;19.27;96.07;101358.91;4996188;28;20029;-64
2022/08/26 01:54:06;;;;;;;21.67;13.30;;;;;;;19.26;96.44;101360.06;5013507;28;20037;-65
2022/08/26 01:56:32;;;;;;;19.88;12.98;;;;;;;19.27;96.40;101361.72;4995971;28;20021;-65
2022/08/26 01:59:01;;;;;;;21.83;12.05;;;;;;;19.35;96.53;101371.16;4995994;28;20417;-65
2022/08/26 02:01:27;;;;;;;22.40;13.15;;;;;;;19.33;95.65;101368.69;4995974;28;20030;-65
2022/08/26 02:04:05;;;;;;;22.20;12.77;;;;;;;19.33;95.80;101365.09;5013456;28;20417;-65
2022/08/26 02:06:31;;;;;;;20.35;12.30;;;;;;;19.29;95.69;101364.97;4995608;28;20084;-65
2022/08/26 02:09:00;;;;;;;21.75;11.45;;;;;;;19.30;95.94;101374.19;4995608;28;20029;-65
2022/08/26 02:11:26;;;;;;;19.70;11.70;;;;;;;19.21;95.97;101363.13;4995468;28;20026;-66
2022/08/26 02:13:56;;;;;;;23.33;12.38;;;;;;;19.31;95.59;101375.84;5013664;28;20080;-65
2022/08/26 02:16:25;;;;;;;22.33;12.32;;;;;;;19.35;94.76;101365.56;4995087;28;20458;-65
2022/08/26 02:18:52;;;;;;;18.63;11.05;;;;;;;19.27;95.25;101355.28;4995534;28;20037;-65
2022/08/26 02:21:18;;;;;;;20.40;12.30;;;;;;;19.28;95.84;101374.56;4995235;28;20033;-64
2022/08/26 02:23:43;;;;;;;21.90;12.55;;;;;;;19.09;96.11;101358.34;4994431;28;20101;-65
2022/08/26 02:26:13;;;;;;;22.30;11.80;;;;;;;19.12;96.18;101368.84;4995664;28;20143;-65
2022/08/26 02:28:45;;;;;;;20.10;12.15;;;;;;;19.22;95.82;101384.41;4995103;28;20029;-64
2022/08/26 02:31:11;;;;;;;21.52;11.93;;;;;;;19.13;95.74;101364.88;4978985;28;20048;-65
2022/08/26 02:33:37;;;;;;;21.60;12.00;;;;;;;19.27;95.40;101378.53;4995471;28;20033;-66
2022/08/26 02:36:03;;;;;;;19.40;11.77;;;;;;;19.27;95.69;101386.94;4995090;28;20026;-65
2022/08/26 02:38:28;;;;;;;19.40;11.88;;;;;;;19.21;95.83;101377.16;4995097;28;20029;-65
2022/08/26 02:40:53;;;;;;;21.75;12.43;;;;;;;19.27;95.60;101389.75;4995094;28;20018;-66
2022/08/26 02:43:19;;;;;;;21.02;11.57;;;;;;;19.28;95.61;101394.19;4994987;28;20471;-66
2022/08/26 02:45:44;;;;;;;21.33;11.77;;;;;;;19.28;95.63;101393.38;4995057;28;20041;-63
2022/08/26 02:48:13;;;;;;;19.88;11.55;;;;;;;19.15;95.70;101387.78;4995144;28;20121;-64
2022/08/26 02:50:39;;;;;;;21.63;11.88;;;;;;;19.19;95.91;101390.69;4995525;28;20024;-64
2022/08/26 02:53:06;;;;;;;22.20;12.40;;;;;;;19.21;95.98;101385.56;4995018;28;20105;-64
2022/08/26 02:55:31;;;;;;;21.67;11.93;;;;;;;19.28;95.87;101398.97;4995057;28;20044;-64
2022/08/26 02:57:57;;;;;;;21.00;11.38;;;;;;;19.24;95.60;101396.06;4995394;28;20026;-64
2022/08/26 03:00:22;;;;;;;19.70;11.20;;;;;;;19.17;95.49;101370.59;4995235;28;20232;-63
2022/08/26 03:02:49;;;;;;;22.42;11.50;;;;;;;19.24;95.28;101382.03;4994856;28;20029;-63
2022/08/26 03:05:15;;;;;;;20.88;11.10;;;;;;;19.09;95.56;101377.97;5013075;28;20026;-63
2022/08/26 03:07:41;;;;;;;21.10;10.75;;;;;;;19.16;95.59;101388.59;4994977;28;20025;-63
2022/08/26 03:10:07;;;;;;;20.15;11.10;;;;;;;19.06;95.47;101370.28;4994376;28;20350;-64
2022/08/26 03:12:33;;;;;;;19.25;10.75;;;;;;;19.08;95.75;101381.94;4993994;28;20478;-64
2022/08/26 03:14:58;;;;;;;17.98;10.43;;;;;;;18.92;96.44;101380.97;4994719;28;20117;-64
2022/08/26 03:17:23;;;;;;;18.27;9.95;;;;;;;19.09;95.78;101394.78;5045474;22;20057;-57
2022/08/26 03:19:49;;;;;;;22.10;10.48;;;;;;;19.15;95.20;101400.97;5051757;28;20017;-56
2022/08/26 03:22:14;;;;;;;20.20;10.60;;;;;;;19.13;95.90;101400.50;5051695;28;20034;-56
2022/08/26 03:24:39;;;;;;;18.85;10.70;;;;;;;19.13;95.20;101395.72;5050993;28;20020;-55
2022/08/26 03:27:05;;;;;;;20.55;10.88;;;;;;;19.14;95.60;101394.56;5051155;28;20036;-56
2022/08/26 03:32:15;;;;;;;19.20;10.45;;;;;;;19.20;95.94;101386.72;5051692;28;20119;-56
2022/08/26 03:34:41;;;;;;;18.52;11.10;;;;;;;19.15;95.98;101396.19;5051569;28;20033;-56
2022/08/26 03:37:07;;;;;;;20.40;11.40;;;;;;;19.13;96.21;101398.53;5050237;28;20060;-56
2022/08/26 03:39:32;;;;;;;21.42;11.60;;;;;;;19.13;96.50;101398.53;5051151;28;20033;-56
2022/08/26 03:41:58;;;;;;;19.60;10.93;;;;;;;19.17;96.23;101399.47;5051261;28;20037;-58
2022/08/26 03:44:23;;;;;;;19.58;11.27;;;;;;;19.15;95.97;101398.19;5051443;28;20028;-58
2022/08/26 03:46:48;;;;;;;18.45;10.68;;;;;;;19.11;96.81;101409.28;5051531;28;20037;-56
2022/08/26 03:49:14;;;;;;;18.50;10.93;;;;;;;19.13;97.01;101403.31;5051409;28;20021;-58
2022/08/26 03:51:39;;;;;;;19.77;10.98;;;;;;;19.08;96.74;101409.16;5051339;28;20033;-57
2022/08/26 03:54:06;;;;;;;20.63;10.98;;;;;;;19.08;96.34;101407.16;5051219;28;20032;-56
2022/08/26 03:56:32;;;;;;;21.42;11.18;;;;;;;19.02;96.94;101411.38;5051095;28;20477;-57
2022/08/26 03:59:01;;;;;;;19.02;10.70;;;;;;;18.98;96.93;101410.47;5050544;28;20021;-57
2022/08/26 04:01:27;;;;;;;20.05;10.90;;;;;;;19.00;96.82;101399.69;5058532;22;20059;-57
2022/08/26 04:03:58;;;;;;;20.33;11.10;;;;;;;19.07;96.38;101404.72;5059526;28;20029;-57
2022/08/26 04:06:32;;;;;;;19.73;10.30;;;;;;;19.10;95.97;101396.44;5050500;28;20036;-58
2022/08/26 04:09:01;;;;;;;18.42;10.63;;;;;;;19.14;96.34;101397.38;5052449;28;20081;-57
2022/08/26 04:11:30;;;;;;;19.20;10.98;;;;;;;19.10;95.89;101402.03;5071518;28;20041;-58
2022/08/26 04:14:00;;;;;;;21.75;10.93;;;;;;;19.17;95.86;101402.28;5071914;28;20033;-58
2022/08/26 04:16:27;;;;;;;18.92;10.40;;;;;;;19.18;96.09;101401.09;5071803;28;20032;-57
2022/08/26 04:18:52;;;;;;;18.00;10.63;;;;;;;19.15;95.51;101398.19;5059727;28;20047;-58
2022/08/26 04:21:17;;;;;;;18.25;10.35;;;;;;;19.15;95.14;101395.38;5052223;28;20461;-58
2022/08/26 04:23:43;;;;;;;17.55;9.77;;;;;;;19.14;95.48;101397.38;5051412;28;20025;-56
2022/08/26 04:26:08;;;;;;;19.35;10.02;;;;;;;19.17;95.48;101396.69;5051490;28;20025;-58
2022/08/26 04:28:34;;;;;;;19.13;10.57;;;;;;;19.16;95.10;101406.25;5051612;28;20399;-57
2022/08/26 04:30:59;;;;;;;20.73;10.55;;;;;;;19.12;95.51;101394.09;5051351;28;20048;-57
2022/08/26 04:33:25;;;;;;;18.10;10.10;;;;;;;19.11;95.41;101395.25;5051179;28;20033;-58
2022/08/26 04:35:58;;;;;;;19.35;11.07;;;;;;;19.04;95.38;101389.44;5062594;28;20361;-58
2022/08/26 04:38:24;;;;;;;;;;;;;;;19.18;94.40;101394.69;5053602;28;20029;-56
2022/08/26 04:40:49;;;;;;;19.23;10.10;;;;;;;19.11;95.43;101400.06;5071038;28;19995;-57
2022/08/26 04:43:14;;;;;;;20.05;10.77;;;;;;;19.16;95.31;101400.66;5071191;28;20021;-57
2022/08/26 04:45:40;;;;;;;18.83;10.35;;;;;;;19.19;94.67;101410.34;5070756;28;20042;-57
2022/08/26 04:48:05;;;;;;;17.27;10.48;;;;;;;19.16;94.98;101406.25;5073730;28;20027;-57
2022/08/26 04:50:31;;;;;;;18.23;10.63;;;;;;;19.22;94.63;101400.41;5074478;28;20033;-58
2022/08/26 04:52:57;;;;;;;18.70;10.52;;;;;;;19.17;94.49;101410.69;5056486;28;20020;-56
2022/08/26 04:55:24;;;;;;;19.15;10.98;;;;;;;19.14;94.78;101408.59;5074290;28;20021;-56
2022/08/26 04:57:49;;;;;;;17.90;9.98;;;;;;;19.18;94.47;101408.69;5074611;28;20024;-57
2022/08/26 05:00:15;;;;;;;19.10;10.73;;;;;;;19.16;94.60;101416.63;5074100;28;20396;-57
2022/08/26 05:02:40;;;;;;;18.10;10.50;;;;;;;19.10;94.74;101413.25;5074261;28;20041;-56
2022/08/26 05:05:06;;;;;;;19.85;10.00;;;;;;;19.11;94.76;101411.28;5074345;28;20353;-58
2022/08/26 05:07:33;;;;;;;17.67;9.77;;;;;;;19.15;94.58;101413.03;5074063;28;20047;-57
2022/08/26 05:09:59;;;;;;;18.73;10.07;;;;;;;19.17;94.20;101418.28;5062847;28;20060;-57
2022/08/26 05:12:24;;;;;;;15.75;9.45;;;;;;;19.20;93.92;101411.97;5054115;28;20126;-57
2022/08/26 05:14:50;;;;;;;16.98;9.80;;;;;;;19.20;93.63;101413.94;5054380;28;20109;-57
2022/08/26 05:17:15;;;;;;;17.10;10.48;;;;;;;19.15;93.86;101415.84;5054046;28;20040;-58
2022/08/26 05:19:41;;;;;;;18.10;10.23;;;;;;;19.15;94.01;101409.38;5053860;28;20396;-56
2022/08/26 05:22:06;;;;;;;18.63;10.07;;;;;;;19.16;93.88;101427.84;5053805;28;20044;-56
2022/08/26 05:24:31;;;;;;;17.25;9.45;;;;;;;19.14;94.04;101413.38;5053676;28;20520;-57
2022/08/26 05:26:56;;;;;;;17.33;9.23;;;;;;;19.13;94.18;101420.97;5053987;28;20112;-57
2022/08/26 05:29:22;;;;;;;17.35;10.00;;;;;;;19.10;94.39;101418.84;5053819;28;20033;-56
2022/08/26 05:31:50;;;;;;;15.77;9.88;;;;;;;19.09;94.60;101425.63;5053908;28;20027;-56
2022/08/26 05:34:16;;;;;;;18.55;9.85;;;;;;;19.15;94.08;101423.41;5053573;28;20036;-56
2022/08/26 05:36:41;;;;;;;17.67;9.68;;;;;;;19.12;94.38;101419.34;5053660;28;20025;-56
2022/08/26 05:39:07;;;;;;;19.13;10.10;;;;;;;19.11;94.41;101437.31;5053599;28;20029;-56
2022/08/26 05:41:36;;;;;;;17.30;9.77;;;;;;;19.14;94.04;101433.00;5053580;28;20063;-56
2022/08/26 05:44:04;;;;;;;18.33;10.30;;;;;;;19.18;93.79;101433.94;5053766;28;20052;-56
2022/08/26 05:46:30;;;;;;;19.05;9.95;;;;;;;19.17;94.26;101424.72;5053643;28;20303;-57
2022/08/26 05:48:56;;;;;;;18.02;9.60;;;;;;;19.18;93.82;101434.75;5053665;28;20361;-57
2022/08/26 05:51:23;;;;;;;17.13;9.80;;;;;;;19.19;93.91;101427.16;5053647;28;20033;-56
2022/08/26 05:53:49;;;;;;;16.63;9.25;;;;;;;19.27;93.52;101436.63;5053696;28;20029;-56
2022/08/26 05:56:14;;;;;;;20.27;9.75;;;;;;;19.31;93.18;101431.94;5053206;28;20032;-56
2022/08/26 05:58:40;;;;;;;17.65;9.68;;;;;;;19.34;93.13;101439.66;5052336;28;20029;-56
2022/08/26 06:01:09;;;;;;;16.20;9.32;;;;;;;19.39;92.48;101441.41;5052540;28;20040;-56
2022/08/26 06:03:37;;;;;;;15.73;8.90;;;;;;;19.34;93.04;101439.66;5052967;28;20116;-57
2022/08/26 06:06:09;;;;;;;19.08;9.45;;;;;;;19.42;92.75;101449.09;5052918;28;20396;-56
2022/08/26 06:08:34;;;;;;;18.00;9.05;;;;;;;19.47;91.97;101452.50;5052614;28;20040;-55
2022/08/26 06:11:02;;;;;;;18.17;8.90;;;;;;;19.53;91.58;101452.25;5052686;28;20025;-56
2022/08/26 06:13:28;;;;;;;17.92;9.10;;;;;;;19.62;91.58;101462.19;5052305;28;20168;-55
2022/08/26 06:15:54;;;;;;;16.30;9.20;;;;;;;19.72;90.72;101465.66;5035044;28;20037;-56
2022/08/26 06:18:29;;;;;;;17.73;9.15;;;;;;;19.67;90.64;101455.50;5051593;28;20021;-56
2022/08/26 06:20:55;;;;;;;18.20;9.15;;;;;;;19.70;90.61;101463.22;5051697;28;20485;-56
2022/08/26 06:26:04;;;;;;;17.77;8.93;;;;;;;19.64;90.85;101467.47;5053112;28;20048;-57
2022/08/26 06:28:31;;;;;;;17.00;8.45;;;;;;;19.64;90.88;101473.88;5052762;28;20021;-57
2022/08/26 06:30:56;;;;;;;17.80;8.60;;;;;;;19.66;90.45;101467.09;5050296;28;20021;-57
2022/08/26 06:33:23;;;;;;;14.60;8.10;;;;;;;19.71;89.88;101470.47;5033148;28;20044;-56
2022/08/26 06:35:49;;;;;;;17.02;8.13;;;;;;;19.75;89.73;101473.38;5050592;28;20021;-56
2022/08/26 06:38:16;;;;;;;17.17;8.05;;;;;;;19.77;89.31;101473.84;5050995;28;20503;-57
2022/08/26 06:40:44;;;;;;;15.70;8.70;;;;;;;19.75;89.43;101479.00;5051797;28;20029;-57
2022/08/26 06:43:10;;;;;;;15.20;8.20;;;;;;;19.82;89.15;101478.41;5051617;28;20473;-56
2022/08/26 06:45:36;;;;;;;16.42;8.70;;;;;;;19.80;88.96;101479.56;5045914;28;20040;-56
2022/08/26 06:48:01;;;;;;;15.00;8.52;;;;;;;19.88;88.39;101486.25;5031171;28;20032;-55
2022/08/26 06:50:26;;;;;;;15.88;8.18;;;;;;;19.89;88.16;101485.06;5030482;28;20513;-56
2022/08/26 06:52:53;;;;;;;16.85;8.38;;;;;;;19.94;87.65;101487.66;5030515;28;20371;-56
2022/08/26 06:55:18;;;;;;;15.30;8.30;;;;;;;19.90;87.95;101488.72;5030602;28;20033;-55
2022/08/26 06:57:44;;;;;;;15.55;8.38;;;;;;;19.89;87.69;101478.66;5030208;28;20087;-56
2022/08/26 07:00:10;;;;;;;16.90;8.30;;;;;;;19.93;87.85;101488.81;5030235;28;20049;-57
2022/08/26 07:02:35;;;;;;;14.05;8.55;;;;;;;20.00;87.20;101484.56;5028753;28;20133;-57
2022/08/26 07:05:01;;;;;;;15.60;8.88;;;;;;;20.09;86.48;101490.88;5030310;28;20116;-58
2022/08/26 07:07:26;;;;;;;17.73;8.35;;;;;;;20.20;85.93;101482.78;5030332;28;20033;-56
2022/08/26 07:09:51;;;;;;;14.70;8.45;;;;;;;20.16;85.93;101481.84;5029341;28;20053;-55
2022/08/26 07:12:16;;;;;;;16.50;8.50;;;;;;;20.17;86.06;101478.66;5030298;28;20048;-55
2022/08/26 07:14:42;;;;;;;15.18;8.18;;;;;;;20.20;85.50;101491.19;5030250;28;20088;-55
2022/08/26 07:17:07;;;;;;;17.58;8.43;;;;;;;20.23;85.80;101487.66;5029988;28;20025;-56
2022/08/26 07:19:32;;;;;;;16.13;8.10;;;;;;;20.31;85.35;101485.88;5030115;28;20120;-56
2022/08/26 07:22:00;;;;;;;14.70;8.20;;;;;;;20.35;84.73;101484.81;5030151;28;20026;-55
2022/08/26 07:24:26;;;;;;;16.63;8.95;;;;;;;20.39;84.57;101491.34;5030148;28;20033;-56
2022/08/26 07:26:52;;;;;;;15.70;8.60;;;;;;;20.32;84.21;101495.94;5027816;28;20440;-54
2022/08/26 07:29:17;;;;;;;14.75;8.43;;;;;;;20.26;84.29;101495.38;5047476;28;20028;-54
2022/08/26 07:31:44;;;;;;;17.02;9.13;;;;;;;20.32;84.62;101491.13;5046189;28;20111;-55
2022/08/26 07:34:12;;;;;;;15.25;8.40;;;;;;;20.42;83.94;101496.25;5029766;28;20022;-55
2022/08/26 07:36:38;;;;;;;18.40;8.85;;;;;;;20.40;83.36;101509.03;5029162;28;20055;-55
2022/08/26 07:39:03;;;;;;;16.77;8.38;;;;;;;20.33;84.00;101506.00;5011983;28;20029;-56
2022/08/26 07:41:29;;;;;;;15.70;8.48;;;;;;;20.35;83.54;101515.72;5029564;28;20018;-57
2022/08/26 07:43:54;;;;;;;14.80;8.23;;;;;;;20.33;81.88;101503.19;5011676;28;20084;-55
2022/08/26 07:46:20;;;;;;;14.60;8.30;;;;;;;20.37;81.47;101504.09;5029280;28;20027;-55
2022/08/26 07:48:47;;;;;;;15.63;8.30;;;;;;;20.37;81.14;101504.09;5029430;28;20033;-55
2022/08/26 07:51:14;;;;;;;15.18;8.38;;;;;;;20.31;81.05;101511.16;5029359;28;20029;-55
2022/08/26 07:53:40;;;;;;;17.55;8.40;;;;;;;20.31;81.80;101513.97;5029447;28;20034;-55
2022/08/26 07:56:05;;;;;;;15.13;8.10;;;;;;;20.37;80.66;101509.72;5029491;28;20136;-56
2022/08/26 07:58:31;;;;;;;14.25;8.30;;;;;;;20.45;80.43;101519.19;5011398;28;20340;-55
2022/08/26 08:00:56;;;;;;;15.23;8.48;;;;;;;20.50;80.68;101505.69;5029302;28;20053;-56
2022/08/26 08:03:23;;;;;;;15.98;8.32;;;;;;;20.69;79.73;101507.81;5027705;28;20453;-55
2022/08/26 08:05:48;;;;;;;16.02;8.45;;;;;;;20.91;78.71;101513.25;5029441;28;20026;-57
2022/08/26 08:08:14;;;;;;;19.10;8.10;;;;;;;21.02;78.14;101512.34;5029160;28;20088;-56
2022/08/26 08:10:40;;;;;;;15.45;8.30;;;;;;;21.13;77.67;101512.59;5027970;28;20033;-55
2022/08/26 08:13:09;;;;;;;16.73;8.45;;;;;;;21.12;76.76;101516.59;5029175;28;20076;-56
2022/08/26 08:15:36;;;;;;;17.45;8.48;;;;;;;21.04;76.86;101514.78;5011697;28;20017;-58
2022/08/26 08:18:01;;;;;;;14.63;8.45;;;;;;;20.98;77.09;101525.47;5029778;28;20548;-56
2022/08/26 08:20:27;;;;;;;11.77;8.23;;;;;;;20.93;77.08;101525.75;5029261;28;20025;-55
2022/08/26 08:22:53;;;;;;;14.48;8.30;;;;;;;20.91;77.33;101516.88;5014178;28;20037;-56
2022/08/26 08:25:19;;;;;;;15.35;8.60;;;;;;;20.85;76.93;101532.38;5033252;28;20460;-55
2022/08/26 08:27:45;;;;;;;16.17;8.20;;;;;;;20.84;77.48;101522.31;5032716;28;20494;-55
2022/08/26 08:30:12;;;;;;;18.55;8.50;;;;;;;20.89;77.27;101533.28;5033069;28;20061;-55
2022/08/26 08:32:38;;;;;;;14.48;8.23;;;;;;;20.92;77.41;101535.38;5032422;28;20034;-55
2022/08/26 08:35:05;;;;;;;13.90;8.20;;;;;;;20.95;76.14;101545.91;5033080;28;20021;-56
2022/08/26 08:37:30;;;;;;;16.33;8.38;;;;;;;20.95;76.09;101534.66;5033030;28;20088;-57
2022/08/26 08:39:55;;;;;;;15.35;8.50;;;;;;;20.98;76.27;101536.72;5032677;28;20064;-54
2022/08/26 08:42:27;;;;;;;16.90;7.97;;;;;;;21.07;75.89;101535.75;5032925;28;20069;-57
2022/08/26 08:44:56;;;;;;;13.10;7.93;;;;;;;21.01;76.00;101527.59;5032664;28;20030;-55
2022/08/26 08:47:34;;;;;;;15.35;8.13;;;;;;;21.08;75.59;101531.75;5032523;28;20128;-56
2022/08/26 08:50:32;;;;;;;17.02;8.02;;;;;;;21.11;75.54;101533.84;5032529;28;20049;-54
2022/08/26 08:53:06;;;;;;;12.98;7.88;;;;;;;21.12;74.77;101535.47;5024796;28;20532;-55
2022/08/26 08:55:44;;;;;;;13.70;7.90;;;;;;;21.13;74.25;101532.31;5032489;28;20409;-56
2022/08/26 08:58:16;;;;;;;17.80;8.82;;;;;;;21.01;74.37;101521.94;5032646;28;20033;-56
2022/08/26 09:00:59;;;;;;;14.73;8.45;;;;;;;21.10;74.26;101535.84;5032831;28;20433;-56
2022/08/26 09:03:40;;;;;;;15.38;8.20;;;;;;;21.12;73.73;101536.28;5030877;28;20500;-56
2022/08/26 09:06:15;;;;;;;14.93;8.45;;;;;;;21.12;73.56;101541.13;5032288;28;20056;-56
2022/08/26 09:08:43;;;;;;;12.13;8.18;;;;;;;21.10;74.21;101518.97;5032366;28;20493;-56
2022/08/26 09:11:08;;;;;;;14.32;8.27;;;;;;;21.30;73.43;101528.31;5032077;28;20064;-55
2022/08/26 09:13:36;;;;;;;14.02;8.30;;;;;;;21.28;72.29;101541.13;5032273;28;20068;-56
2022/08/26 09:16:09;;;;;;;15.07;8.07;;;;;;;21.19;72.82;101536.50;5032492;28;20045;-55
2022/08/26 09:19:06;;;;;;;15.93;8.10;;;;;;;21.11;73.30;101543.09;5032233;28;20037;-56
2022/08/26 09:21:32;;;;;;;13.13;8.18;;;;;;;20.97;73.21;101543.53;5017770;28;20045;-54
2022/08/26 09:23:58;;;;;;;12.25;8.60;;;;;;;20.94;74.26;101537.81;5031703;28;20311;-55
2022/08/26 09:26:29;;;;;;;15.43;8.18;;;;;;;20.85;74.55;101547.25;5014126;28;20035;-55
2022/08/26 09:29:01;;;;;;;15.63;8.80;;;;;;;20.70;75.23;101545.19;5031604;28;20033;-55
2022/08/26 09:31:29;;;;;;;16.30;8.80;;;;;;;20.78;75.33;101543.44;5032176;28;20430;-55
2022/08/26 09:34:25;;;;;;;16.00;8.38;;;;;;;20.92;75.20;101541.00;5031537;28;20037;-55
2022/08/26 09:36:52;;;;;;;17.25;8.35;;;;;;;20.96;74.57;101549.53;5031976;28;20025;-55
2022/08/26 09:39:28;;;;;;;16.45;8.07;;;;;;;20.91;74.99;101547.00;5030232;28;20037;-54
2022/08/26 09:42:05;;;;;;;15.88;8.50;;;;;;;20.92;75.15;101552.25;5032007;28;20039;-55
2022/08/26 09:44:32;;;;;;;16.95;8.70;;;;;;;20.84;75.64;101547.59;5031644;28;20040;-55
2022/08/26 09:47:02;;;;;;;17.30;8.20;;;;;;;20.84;75.16;101545.59;5031438;28;20022;-56
2022/08/26 09:49:33;;;;;;;16.65;8.13;;;;;;;20.91;75.40;101552.63;5031804;28;20100;-56
2022/08/26 09:52:26;;;;;;;17.92;8.60;;;;;;;20.98;75.14;101553.59;5013954;28;20026;-56
2022/08/26 09:55:06;;;;;;;16.98;8.93;;;;;;;20.94;76.07;101557.50;5029176;28;20045;-57
2022/08/26 09:57:43;;;;;;;17.42;8.55;;;;;;;20.86;75.91;101542.44;5031437;28;20034;-55
2022/08/26 10:00:49;;;;;;;16.30;8.32;;;;;;;21.01;75.49;101552.91;5031092;28;20501;-56
2022/08/26 10:03:26;;;;;;;16.23;8.13;;;;;;;20.96;74.96;101546.72;5026009;28;20053;-55
2022/08/26 10:06:05;;;;;;;16.52;8.25;;;;;;;21.02;75.03;101557.34;5029803;28;20327;-55
2022/08/26 10:08:37;;;;;;;14.80;8.07;;;;;;;21.09;74.56;101559.53;5012809;28;20128;-57
2022/08/26 10:11:35;;;;;;;18.58;8.38;;;;;;;21.09;74.65;101553.06;5030646;28;20505;-54
2022/08/26 10:14:06;;;;;;;13.55;8.32;;;;;;;21.13;74.74;101554.00;5031213;28;20437;-55
2022/08/26 10:16:51;;;;;;;18.35;8.77;;;;;;;21.13;74.50;101566.06;5031078;28;20033;-53
2022/08/26 10:19:34;;;;;;;16.38;8.55;;;;;;;21.08;74.94;101559.88;5044070;28;20036;-55
2022/08/26 10:22:06;;;;;;;17.20;8.90;;;;;;;21.14;74.52;101562.06;5050880;28;20108;-55
2022/08/26 10:24:39;;;;;;;16.52;8.73;;;;;;;21.12;74.41;101566.44;5050579;28;20032;-55
2022/08/26 10:27:30;;;;;;;16.90;8.80;;;;;;;21.21;74.37;101564.25;5050542;28;20024;-55
2022/08/26 10:30:03;;;;;;;14.57;8.43;;;;;;;21.16;74.94;101562.53;5034932;28;20303;-55
2022/08/26 10:32:37;;;;;;;16.92;8.88;;;;;;;21.14;74.16;101555.63;5030601;28;20270;-57
2022/08/26 10:35:05;;;;;;;17.65;9.48;;;;;;;21.23;74.16;101555.44;5030955;28;20025;-55
2022/08/26 10:37:40;;;;;;;15.07;8.70;;;;;;;21.27;74.33;101550.75;5030716;28;20026;-56
2022/08/26 10:40:19;;;;;;;16.15;8.73;;;;;;;21.33;74.35;101561.38;5030824;28;20037;-55
2022/08/26 10:42:51;;;;;;;16.98;8.98;;;;;;;21.26;74.42;101554.72;5030362;28;20473;-55
2022/08/26 10:45:20;;;;;;;15.23;8.65;;;;;;;21.31;74.10;101557.25;5030020;28;20393;-55
2022/08/26 10:47:57;;;;;;;18.08;8.60;;;;;;;21.26;74.00;101561.16;5030417;28;20030;-55
2022/08/26 10:50:36;;;;;;;17.35;8.85;;;;;;;21.19;74.14;101550.56;5030154;28;20037;-55
2022/08/26 10:53:10;;;;;;;16.80;9.15;;;;;;;21.18;74.63;101553.72;5030728;28;20036;-55
2022/08/26 10:55:48;;;;;;;20.45;9.48;;;;;;;21.16;74.10;101550.47;5012638;28;20127;-55
2022/08/26 10:58:40;;;;;;;16.70;8.75;;;;;;;21.18;74.67;101559.34;5029784;28;20029;-55
2022/08/26 11:04:21;;;;;;;17.38;9.07;;;;;;;21.40;73.49;101554.28;5030392;28;20617;-55
2022/08/26 11:06:46;;;;;;;17.00;8.93;;;;;;;21.51;72.73;101553.34;5030302;28;20037;-55
2022/08/26 11:09:43;;;;;;;18.20;8.52;;;;;;;21.60;72.33;101550.38;5029862;28;20028;-54
2022/08/26 11:12:29;;;;;;;17.27;8.80;;;;;;;21.53;72.04;101563.44;5030129;28;20033;-54
2022/08/26 11:14:54;;;;;;;16.27;8.65;;;;;;;21.46;72.37;101566.88;5029706;28;20140;-56
2022/08/26 11:17:45;;;;;;;18.73;8.70;;;;;;;21.40;72.67;101557.09;5012067;28;20030;-55
2022/08/26 11:20:32;;;;;;;18.98;9.63;;;;;;;21.37;73.24;101552.19;5012104;28;20128;-56
2022/08/26 11:23:19;;;;;;;15.30;8.70;;;;;;;21.37;73.31;101555.00;5029543;28;20025;-55
2022/08/26 11:25:57;;;;;;;16.25;8.65;;;;;;;21.42;73.01;101557.53;5029836;28;20121;-55
2022/08/26 11:28:46;;;;;;;15.82;8.82;;;;;;;21.50;72.67;101554.53;5029642;28;20053;-54
2022/08/26 11:31:24;;;;;;;19.30;8.70;;;;;;;21.37;72.70;101547.38;5029311;28;20036;-53